Terminal Aerodrome Forecast
Issued by NWS

Home | Current Version | Previous Version | Text Only | Print | Product List | Glossary On
Versions: 1 2 3 4 5 6 7 8 9 10 11 12 13 14 15 16 17 18 19
000
FTUS43 KDVN 251730
TAFCID
TAF
KCID 251730Z 2518/2618 13013KT P6SM BKN100
     FM260300 13008KT P6SM VCSH BKN060
     FM260700 16008KT 5SM -SHRA BKN030
     FM261300 26013KT 5SM BR VCSH OVC012=

USA.gov is the U.S. government's official web portal to all federal, state and local government web resources and services.